createdAt,value
2023-03-17T00:00:54.792Z,0.65
2023-03-17T00:03:25.867Z,0.50
2023-03-17T00:05:53.738Z,0.57
2023-03-17T00:08:27.439Z,0.35
2023-03-17T00:10:54.003Z,0.47
2023-03-17T00:13:20.395Z,0.60
2023-03-17T00:15:49.479Z,0.50
2023-03-17T00:18:17.444Z,0.30
2023-03-17T00:20:44.513Z,0.40
2023-03-17T00:23:16.124Z,0.60
2023-03-17T00:25:43.401Z,0.70
2023-03-17T00:28:15.262Z,0.50
2023-03-17T00:30:41.681Z,0.50
2023-03-17T00:33:10.016Z,0.40
2023-03-17T00:35:36.684Z,0.88
2023-03-17T00:38:03.113Z,0.57
2023-03-17T00:40:31.185Z,0.60
2023-03-17T00:43:00.732Z,0.85
2023-03-17T00:45:27.172Z,0.60
2023-03-17T00:47:55.966Z,0.60
2023-03-17T00:50:24.314Z,0.63
2023-03-17T00:52:54.938Z,0.52
2023-03-17T00:55:22.294Z,0.30
2023-03-17T00:57:49.461Z,0.70
2023-03-17T01:00:29.565Z,0.40
2023-03-17T01:02:57.288Z,0.60
2023-03-17T01:05:24.944Z,0.52
2023-03-17T01:07:53.249Z,0.60
2023-03-17T01:10:22.522Z,0.63
2023-03-17T01:12:49.308Z,0.77
2023-03-17T01:15:15.895Z,0.60
2023-03-17T01:17:42.286Z,0.63
2023-03-17T01:20:12.527Z,0.80
2023-03-17T01:22:38.971Z,0.55
2023-03-17T01:25:05.642Z,0.68
2023-03-17T01:27:35.003Z,0.52
2023-03-17T01:30:01.438Z,0.60
2023-03-17T01:32:28.377Z,0.80
2023-03-17T01:34:54.792Z,0.43
2023-03-17T01:37:23.365Z,0.50
2023-03-17T01:39:49.743Z,0.70
2023-03-17T01:42:17.582Z,0.70
2023-03-17T01:44:57.027Z,0.70
2023-03-17T01:47:28.685Z,0.60
2023-03-17T01:49:55.164Z,0.60
2023-03-17T01:52:22.989Z,0.82
2023-03-17T01:54:53.562Z,0.57
2023-03-17T01:57:26.707Z,0.80
2023-03-17T01:59:55.577Z,0.60
2023-03-17T02:02:30.853Z,0.73
2023-03-17T02:04:58.046Z,0.80
2023-03-17T02:07:27.229Z,0.70
2023-03-17T02:09:54.515Z,0.52
2023-03-17T02:12:22.650Z,0.70
2023-03-17T02:14:49.057Z,0.80
2023-03-17T02:17:15.609Z,0.60
2023-03-17T02:19:42.486Z,1.33
2023-03-17T02:22:09.285Z,1.15
2023-03-17T02:24:47.041Z,0.60
2023-03-17T02:27:34.858Z,0.88
2023-03-17T02:30:01.697Z,0.52
2023-03-17T02:32:28.154Z,0.70
2023-03-17T02:34:54.817Z,1.00
2023-03-17T02:37:21.600Z,0.65
2023-03-17T02:39:48.084Z,1.33
2023-03-17T02:42:14.609Z,0.80
2023-03-17T02:44:41.219Z,0.60
2023-03-17T02:47:08.545Z,0.70
2023-03-17T02:49:36.097Z,1.00
2023-03-17T02:52:02.726Z,0.60
2023-03-17T02:54:29.126Z,0.80
2023-03-17T02:56:55.621Z,0.73
2023-03-17T02:59:22.268Z,1.05
2023-03-17T03:01:51.172Z,0.80
2023-03-17T03:04:19.128Z,0.80
2023-03-17T03:06:45.955Z,0.75
2023-03-17T03:09:12.477Z,1.00
2023-03-17T03:11:39.366Z,1.08
2023-03-17T03:14:06.254Z,0.70
2023-03-17T03:16:32.689Z,0.90
2023-03-17T03:19:01.406Z,0.57
2023-03-17T03:21:28.336Z,0.65
2023-03-17T03:23:54.961Z,0.90
2023-03-17T03:26:22.703Z,0.93
2023-03-17T03:28:49.227Z,0.85
2023-03-17T03:31:16.167Z,1.10
2023-03-17T03:33:42.829Z,0.75
2023-03-17T03:36:11.058Z,0.77
2023-03-17T03:38:37.554Z,1.00
2023-03-17T03:41:04.032Z,0.82
2023-03-17T03:43:30.586Z,0.70
2023-03-17T03:45:57.068Z,0.80
2023-03-17T03:48:23.515Z,1.00
2023-03-17T03:50:50.172Z,0.77
2023-03-17T03:53:16.756Z,0.90
2023-03-17T03:55:43.140Z,0.82
2023-03-17T03:58:09.651Z,0.80
2023-03-17T04:00:36.102Z,1.15
2023-03-17T04:03:02.603Z,0.98
2023-03-17T04:05:29.052Z,0.65
2023-03-17T04:07:55.630Z,0.95
2023-03-17T04:10:23.253Z,0.93
2023-03-17T04:12:49.770Z,0.95
2023-03-17T04:15:17.298Z,1.90
2023-03-17T04:17:47.521Z,1.15
2023-03-17T04:20:15.237Z,1.25
2023-03-17T04:22:42.209Z,1.08
2023-03-17T04:25:10.225Z,0.80
2023-03-17T04:27:37.482Z,0.88
2023-03-17T04:30:04.315Z,0.98
2023-03-17T04:32:30.880Z,0.88
2023-03-17T04:34:57.904Z,0.73
2023-03-17T04:37:24.639Z,1.33
2023-03-17T04:39:51.382Z,0.80
2023-03-17T04:42:18.189Z,0.75
2023-03-17T04:44:44.825Z,1.13
2023-03-17T04:47:11.394Z,1.73
2023-03-17T04:49:37.812Z,0.90
2023-03-17T04:52:04.349Z,1.00
2023-03-17T04:54:30.789Z,1.00
2023-03-17T04:56:57.445Z,1.00
2023-03-17T04:59:23.910Z,0.90
2023-03-17T05:01:50.492Z,1.25
2023-03-17T05:04:30.796Z,1.15
2023-03-17T05:06:58.447Z,1.80
2023-03-17T05:09:25.721Z,1.02
2023-03-17T05:11:52.341Z,1.08
2023-03-17T05:14:18.732Z,1.42
2023-03-17T05:16:46.966Z,1.02
2023-03-17T05:19:13.535Z,1.30
2023-03-17T05:21:40.034Z,1.10
2023-03-17T05:24:06.494Z,1.55
2023-03-17T05:26:36.480Z,1.27
2023-03-17T05:29:03.114Z,1.13
2023-03-17T05:31:31.146Z,2.13
2023-03-17T05:33:58.008Z,1.38
2023-03-17T05:36:24.687Z,1.45
2023-03-17T05:38:51.152Z,1.30
2023-03-17T05:41:17.834Z,1.05
2023-03-17T05:43:47.138Z,1.33
2023-03-17T05:46:13.871Z,1.17
2023-03-17T05:48:40.794Z,1.63
2023-03-17T05:51:07.474Z,1.40
2023-03-17T05:53:35.914Z,1.10
2023-03-17T05:56:02.420Z,1.50
2023-03-17T05:58:29.032Z,1.40
2023-03-17T06:00:58.344Z,1.05
2023-03-17T06:03:24.849Z,1.17
2023-03-17T06:05:51.726Z,1.50
2023-03-17T06:08:18.253Z,1.40
2023-03-17T06:10:44.782Z,1.23
2023-03-17T06:13:11.662Z,1.60
2023-03-17T06:15:39.557Z,1.20
2023-03-17T06:18:09.027Z,1.45
2023-03-17T06:20:35.528Z,1.17
2023-03-17T06:23:05.350Z,1.13
2023-03-17T06:25:33.634Z,1.02
2023-03-17T06:28:02.763Z,1.40
2023-03-17T06:30:29.771Z,1.30
2023-03-17T06:32:56.604Z,1.33
2023-03-17T06:35:23.351Z,1.33
2023-03-17T06:37:49.765Z,2.00
2023-03-17T06:40:16.272Z,1.30
2023-03-17T06:42:42.714Z,1.13
2023-03-17T06:45:09.977Z,1.30
2023-03-17T06:47:37.291Z,1.25
2023-03-17T06:50:04.399Z,1.45
2023-03-17T06:52:33.594Z,1.90
2023-03-17T06:54:59.989Z,1.30
2023-03-17T06:57:27.006Z,1.80
2023-03-17T06:59:53.596Z,1.98
2023-03-17T07:02:20.149Z,1.30
2023-03-17T07:04:46.999Z,1.30
2023-03-17T07:07:13.446Z,1.63
2023-03-17T07:09:42.682Z,1.50
2023-03-17T07:12:10.359Z,1.70
2023-03-17T07:14:36.821Z,1.48
2023-03-17T07:17:04.034Z,1.65
2023-03-17T07:19:31.288Z,1.40
2023-03-17T07:21:57.712Z,1.60
2023-03-17T07:24:24.630Z,1.73
2023-03-17T07:26:53.707Z,1.63
2023-03-17T07:29:21.340Z,2.45
2023-03-17T07:31:48.366Z,1.55
2023-03-17T07:34:15.487Z,1.65
2023-03-17T07:36:41.876Z,1.70
2023-03-17T07:39:10.743Z,1.88
2023-03-17T07:41:38.517Z,1.43
2023-03-17T07:44:09.585Z,1.80
2023-03-17T07:46:36.807Z,1.65
2023-03-17T07:49:03.359Z,1.58
2023-03-17T07:51:30.146Z,2.20
2023-03-17T07:54:04.132Z,1.80
2023-03-17T07:56:31.647Z,1.70
2023-03-17T07:58:59.052Z,1.42
2023-03-17T08:01:26.569Z,1.70
2023-03-17T08:03:53.173Z,4.10
2023-03-17T08:06:19.755Z,2.10
2023-03-17T08:08:46.168Z,2.35
2023-03-17T08:11:12.754Z,2.17
2023-03-17T08:13:39.120Z,1.80
2023-03-17T08:16:05.608Z,2.10
2023-03-17T08:18:32.098Z,2.30
2023-03-17T08:20:58.732Z,2.30
2023-03-17T08:23:25.734Z,1.77
2023-03-17T08:25:56.916Z,1.73
2023-03-17T08:28:23.320Z,2.10
2023-03-17T08:30:50.766Z,2.03
2023-03-17T08:33:17.507Z,2.05
2023-03-17T08:35:44.077Z,2.35
2023-03-17T08:38:11.164Z,2.15
2023-03-17T08:40:38.764Z,2.35
2023-03-17T08:43:05.348Z,2.17
2023-03-17T08:45:32.360Z,2.55
2023-03-17T08:47:58.947Z,2.40
2023-03-17T08:50:25.906Z,2.05
2023-03-17T08:52:55.408Z,2.60
2023-03-17T08:55:21.791Z,2.80
2023-03-17T08:57:48.694Z,2.45
2023-03-17T09:00:20.424Z,2.88
2023-03-17T09:02:47.502Z,2.67
2023-03-17T09:05:15.237Z,2.30
2023-03-17T09:07:41.895Z,2.30
2023-03-17T09:10:09.562Z,2.42
2023-03-17T09:12:36.022Z,2.65
2023-03-17T09:15:02.516Z,2.65
2023-03-17T09:17:29.001Z,2.42
2023-03-17T09:19:55.427Z,2.75
2023-03-17T09:22:22.021Z,3.75
2023-03-17T09:24:48.519Z,3.05
2023-03-17T09:27:17.991Z,3.00
2023-03-17T09:29:44.488Z,2.72
2023-03-17T09:32:11.185Z,3.55
2023-03-17T09:34:37.646Z,2.70
2023-03-17T09:37:04.084Z,3.22
2023-03-17T09:39:30.557Z,2.63
2023-03-17T09:42:00.034Z,3.38
2023-03-17T09:44:38.834Z,2.80
2023-03-17T09:47:23.886Z,2.92
2023-03-17T09:49:58.643Z,4.47
2023-03-17T09:52:28.067Z,3.03
2023-03-17T09:54:54.983Z,2.80
2023-03-17T09:57:26.968Z,3.42
2023-03-17T10:00:14.125Z,3.28
2023-03-17T10:02:40.948Z,3.28
2023-03-17T10:05:27.889Z,4.38
2023-03-17T10:08:00.511Z,3.00
2023-03-17T10:10:32.763Z,3.72
2023-03-17T10:13:08.483Z,3.30
2023-03-17T10:15:44.457Z,3.35
2023-03-17T10:18:13.199Z,3.00
2023-03-17T10:20:47.729Z,3.28
2023-03-17T10:23:18.448Z,2.83
2023-03-17T10:25:44.921Z,2.85
2023-03-17T10:28:14.071Z,2.83
2023-03-17T10:30:40.487Z,3.17
2023-03-17T10:33:07.230Z,3.00
2023-03-17T10:35:36.471Z,3.08
2023-03-17T10:38:14.885Z,3.05
2023-03-17T10:40:41.609Z,3.08
2023-03-17T10:43:14.296Z,2.90
2023-03-17T10:45:47.845Z,3.40
2023-03-17T10:48:17.421Z,3.03
2023-03-17T10:50:48.622Z,3.85
2023-03-17T10:53:29.211Z,3.00
2023-03-17T10:56:15.906Z,2.80
2023-03-17T10:58:49.484Z,2.88
2023-03-17T11:01:17.349Z,2.63
2023-03-17T11:03:44.286Z,3.30
2023-03-17T11:06:11.841Z,3.05
2023-03-17T11:08:38.274Z,3.40
2023-03-17T11:11:06.480Z,3.28
2023-03-17T11:13:32.966Z,2.97
2023-03-17T11:16:10.114Z,3.30
2023-03-17T11:18:37.577Z,4.10
2023-03-17T11:21:04.143Z,3.30
2023-03-17T11:23:36.849Z,3.10
2023-03-17T11:26:09.280Z,3.70
2023-03-17T11:28:39.019Z,3.53
2023-03-17T11:31:09.406Z,3.78
2023-03-17T11:33:48.192Z,3.15
2023-03-17T11:36:24.947Z,3.60
2023-03-17T11:39:10.210Z,2.80
2023-03-17T11:41:44.926Z,3.88
2023-03-17T11:44:38.508Z,2.90
2023-03-17T11:47:09.115Z,3.00
2023-03-17T11:49:39.286Z,3.22
2023-03-17T11:52:11.129Z,3.30
2023-03-17T11:54:58.735Z,3.40
2023-03-17T11:57:25.461Z,2.90
2023-03-17T11:59:55.376Z,2.67
2023-03-17T12:02:28.628Z,3.42
2023-03-17T12:05:00.151Z,3.65
2023-03-17T12:07:32.413Z,3.33
2023-03-17T12:10:06.075Z,3.30
2023-03-17T12:12:35.320Z,3.28
2023-03-17T12:15:02.207Z,3.05
2023-03-17T12:17:33.169Z,3.30
2023-03-17T12:22:28.518Z,3.67
2023-03-17T12:25:10.339Z,3.20
2023-03-17T12:27:41.262Z,3.10
2023-03-17T12:32:52.857Z,2.50
2023-03-17T12:35:26.317Z,3.00
2023-03-17T12:37:53.441Z,2.67
2023-03-17T12:40:24.556Z,3.35
2023-03-17T12:42:54.464Z,3.50
2023-03-17T12:45:25.108Z,2.85
2023-03-17T12:47:54.552Z,3.28
2023-03-17T12:50:39.300Z,3.85
2023-03-17T12:53:24.818Z,3.10
2023-03-17T12:55:52.085Z,3.08
2023-03-17T12:58:30.730Z,3.25
2023-03-17T13:00:57.589Z,2.72
2023-03-17T13:03:24.102Z,2.85
2023-03-17T13:06:26.017Z,3.83
2023-03-17T13:08:53.169Z,2.90
2023-03-17T13:11:19.736Z,2.50
2023-03-17T13:13:55.426Z,3.30
2023-03-17T13:16:29.772Z,2.97
2023-03-17T13:19:16.474Z,3.40
2023-03-17T13:21:50.741Z,3.25
2023-03-17T13:24:17.261Z,3.72
2023-03-17T13:26:50.879Z,3.30
2023-03-17T13:29:24.139Z,3.30
2023-03-17T13:31:50.900Z,3.72
2023-03-17T13:34:19.446Z,2.65
2023-03-17T13:36:48.696Z,2.70
2023-03-17T13:39:27.122Z,2.85
2023-03-17T13:42:05.521Z,2.55
2023-03-17T13:44:53.548Z,2.60
2023-03-17T13:47:23.204Z,3.10
2023-03-17T13:49:54.081Z,2.90
2023-03-17T13:54:49.001Z,3.20
2023-03-17T13:57:29.264Z,4.20
2023-03-17T14:00:15.055Z,3.55
2023-03-17T14:02:42.187Z,3.42
2023-03-17T14:05:18.917Z,3.17
2023-03-17T14:07:49.369Z,2.67
2023-03-17T14:10:20.503Z,2.70
2023-03-17T14:12:52.169Z,2.80
2023-03-17T14:15:27.429Z,2.53
2023-03-17T14:17:56.395Z,2.63
2023-03-17T14:20:24.268Z,2.67
2023-03-17T14:22:55.623Z,3.13
2023-03-17T14:25:26.779Z,2.60
2023-03-17T14:27:54.834Z,3.08
2023-03-17T14:30:22.607Z,3.08
2023-03-17T14:33:01.717Z,2.58
2023-03-17T14:35:35.840Z,3.58
2023-03-17T14:38:02.711Z,2.78
2023-03-17T14:40:32.384Z,3.53
2023-03-17T14:42:58.862Z,6.07
2023-03-17T14:45:43.121Z,3.22
2023-03-17T14:48:13.144Z,3.47
2023-03-17T14:50:49.259Z,3.50
2023-03-17T14:53:16.182Z,3.30
2023-03-17T14:55:43.833Z,3.53
2023-03-17T14:58:20.453Z,3.60
2023-03-17T15:00:52.584Z,3.13
2023-03-17T15:03:21.030Z,3.25
2023-03-17T15:05:48.102Z,3.63
2023-03-17T15:08:36.082Z,3.58
2023-03-17T15:11:04.211Z,3.50
2023-03-17T15:13:33.261Z,4.32
2023-03-17T15:16:03.861Z,3.67
2023-03-17T15:18:30.369Z,3.13
2023-03-17T15:20:56.771Z,3.30
2023-03-17T15:23:25.029Z,3.00
2023-03-17T15:25:55.800Z,3.35
2023-03-17T15:28:26.143Z,3.25
2023-03-17T15:30:54.023Z,3.28
2023-03-17T15:33:21.937Z,3.78
2023-03-17T15:35:51.691Z,3.22
2023-03-17T15:38:18.213Z,3.28
2023-03-17T15:40:44.678Z,3.67
2023-03-17T15:43:15.040Z,3.70
2023-03-17T15:45:42.872Z,3.80
2023-03-17T15:48:15.772Z,3.30
2023-03-17T15:50:42.417Z,4.03
2023-03-17T15:53:10.266Z,3.42
2023-03-17T15:55:39.304Z,3.95
2023-03-17T15:58:06.038Z,3.60
2023-03-17T16:00:33.536Z,3.95
2023-03-17T16:03:04.320Z,3.60
2023-03-17T16:05:32.164Z,4.38
2023-03-17T16:07:58.604Z,3.60
2023-03-17T16:10:25.170Z,3.75
2023-03-17T16:12:54.697Z,3.25
2023-03-17T16:15:23.837Z,3.80
2023-03-17T16:17:54.919Z,3.83
2023-03-17T16:22:47.787Z,3.35
2023-03-17T16:25:20.003Z,4.15
2023-03-17T16:27:46.948Z,3.20
2023-03-17T16:30:20.927Z,3.58
2023-03-17T16:32:48.046Z,3.83
2023-03-17T16:35:16.491Z,3.88
2023-03-17T16:37:43.230Z,3.92
2023-03-17T16:40:17.170Z,4.05
2023-03-17T16:42:44.191Z,3.22
2023-03-17T16:45:14.628Z,3.67
2023-03-17T16:47:41.072Z,4.05
2023-03-17T16:50:14.396Z,4.18
2023-03-17T16:52:40.826Z,3.88
2023-03-17T16:55:09.698Z,4.45
2023-03-17T16:57:36.981Z,4.00
2023-03-17T17:00:09.667Z,4.57
2023-03-17T17:02:36.283Z,5.00
2023-03-17T17:05:05.618Z,3.80
2023-03-17T17:07:32.152Z,4.25
2023-03-17T17:09:58.585Z,4.07
2023-03-17T17:12:25.018Z,4.35
2023-03-17T17:14:51.411Z,4.70
2023-03-17T17:17:17.876Z,4.63
2023-03-17T17:19:44.370Z,5.10
2023-03-17T17:22:11.470Z,4.25
2023-03-17T17:24:37.932Z,4.55
2023-03-17T17:27:04.668Z,4.10
2023-03-17T17:29:32.430Z,5.13
2023-03-17T17:31:59.011Z,4.90
2023-03-17T17:34:25.439Z,5.72
2023-03-17T17:36:51.951Z,5.57
2023-03-17T17:39:18.447Z,4.82
2023-03-17T17:41:44.845Z,4.80
2023-03-17T17:44:11.235Z,6.63
2023-03-17T17:46:37.825Z,5.05
2023-03-17T17:49:04.837Z,4.40
2023-03-17T17:51:32.739Z,5.65
2023-03-17T17:53:59.312Z,5.05
2023-03-17T17:56:26.027Z,5.13
2023-03-17T17:58:54.651Z,4.78
2023-03-17T18:01:22.720Z,5.13
2023-03-17T18:03:49.201Z,5.25
2023-03-17T18:06:17.141Z,5.25
2023-03-17T18:08:44.278Z,5.20
2023-03-17T18:11:10.833Z,4.90
2023-03-17T18:13:38.985Z,4.38
2023-03-17T18:16:10.042Z,4.78
2023-03-17T18:18:40.515Z,5.03
2023-03-17T18:21:06.894Z,4.90
2023-03-17T18:23:34.392Z,5.05
2023-03-17T18:26:01.315Z,5.15
2023-03-17T18:28:27.786Z,5.60
2023-03-17T18:30:54.392Z,5.45
2023-03-17T18:33:21.015Z,5.28
2023-03-17T18:35:48.788Z,5.10
2023-03-17T18:38:15.267Z,4.97
2023-03-17T18:40:42.356Z,6.18
2023-03-17T18:43:08.740Z,6.25
2023-03-17T18:45:35.342Z,5.45
2023-03-17T18:48:01.890Z,5.38
2023-03-17T18:50:31.365Z,5.00
2023-03-17T18:52:58.042Z,4.97
2023-03-17T18:55:24.665Z,4.38
2023-03-17T18:57:51.860Z,5.38
2023-03-17T19:00:21.078Z,5.57
2023-03-17T19:02:47.606Z,5.57
2023-03-17T19:05:14.360Z,6.15
2023-03-17T19:07:43.916Z,6.53
2023-03-17T19:10:12.028Z,6.82
2023-03-17T19:12:38.788Z,6.00
2023-03-17T19:15:06.236Z,5.65
2023-03-17T19:17:32.724Z,5.85
2023-03-17T19:19:59.141Z,5.82
2023-03-17T19:22:25.587Z,6.05
2023-03-17T19:24:55.394Z,5.93
2023-03-17T19:27:21.821Z,6.68
2023-03-17T19:29:48.413Z,5.78
2023-03-17T19:32:16.138Z,6.22
2023-03-17T19:34:42.735Z,6.20
2023-03-17T19:37:09.235Z,6.28
2023-03-17T19:39:37.598Z,6.72
2023-03-17T19:42:06.951Z,6.50
2023-03-17T19:44:33.686Z,6.72
2023-03-17T19:47:04.968Z,7.43
2023-03-17T19:49:31.583Z,7.35
2023-03-17T19:51:58.246Z,7.80
2023-03-17T19:54:24.763Z,6.65
2023-03-17T19:56:51.826Z,7.38
2023-03-17T19:59:19.698Z,6.85
2023-03-17T20:01:46.403Z,7.43
2023-03-17T20:04:17.549Z,6.53
2023-03-17T20:06:44.176Z,6.78
2023-03-17T20:09:10.556Z,6.90
2023-03-17T20:11:37.042Z,6.38
2023-03-17T20:14:04.064Z,8.15
2023-03-17T20:16:33.481Z,7.50
2023-03-17T20:19:00.373Z,6.53
2023-03-17T20:21:26.799Z,7.05
2023-03-17T20:23:53.227Z,7.93
2023-03-17T20:26:20.002Z,8.02
2023-03-17T20:28:46.922Z,8.23
2023-03-17T20:31:13.762Z,7.85
2023-03-17T20:33:40.226Z,7.30
2023-03-17T20:36:06.897Z,7.38
2023-03-17T20:38:36.824Z,8.50
2023-03-17T20:41:11.140Z,7.30
2023-03-17T20:43:40.599Z,7.63
2023-03-17T20:46:14.772Z,6.82
2023-03-17T20:48:41.640Z,7.32
2023-03-17T20:51:10.144Z,8.45
2023-03-17T20:53:36.526Z,8.10
2023-03-17T20:56:03.039Z,8.43
2023-03-17T20:58:30.462Z,7.95
2023-03-17T21:00:58.556Z,8.50
2023-03-17T21:03:24.974Z,9.32
2023-03-17T21:05:51.525Z,7.72
2023-03-17T21:08:18.930Z,8.70
2023-03-17T21:10:45.691Z,8.27
2023-03-17T21:13:12.505Z,8.02
2023-03-17T21:15:39.431Z,8.13
2023-03-17T21:18:05.851Z,7.95
2023-03-17T21:20:32.446Z,8.60
2023-03-17T21:23:00.333Z,7.88
2023-03-17T21:25:26.774Z,7.40
2023-03-17T21:27:53.172Z,8.18
2023-03-17T21:30:19.608Z,7.85
2023-03-17T21:32:46.139Z,8.05
2023-03-17T21:35:12.766Z,8.68
2023-03-17T21:37:39.152Z,8.70
2023-03-17T21:40:06.975Z,11.00
2023-03-17T21:42:33.751Z,8.75
2023-03-17T21:45:00.254Z,7.78
2023-03-17T21:47:27.324Z,8.95
2023-03-17T21:49:53.718Z,8.73
2023-03-17T21:52:21.615Z,8.55
2023-03-17T21:54:47.987Z,8.85
2023-03-17T21:57:14.391Z,8.93
2023-03-17T21:59:41.133Z,8.23
2023-03-17T22:02:10.705Z,8.70
2023-03-17T22:04:37.069Z,8.75
2023-03-17T22:07:04.485Z,7.72
2023-03-17T22:09:31.244Z,8.68
2023-03-17T22:11:57.928Z,8.38
2023-03-17T22:14:24.365Z,8.50
2023-03-17T22:16:50.991Z,7.95
2023-03-17T22:19:19.968Z,9.23
2023-03-17T22:21:48.048Z,8.43
2023-03-17T22:24:14.415Z,8.45
2023-03-17T22:26:41.005Z,7.65
2023-03-17T22:29:07.509Z,8.40
2023-03-17T22:31:35.388Z,8.60
2023-03-17T22:34:02.216Z,7.93
2023-03-17T22:36:29.780Z,8.13
2023-03-17T22:38:56.602Z,7.90
2023-03-17T22:41:24.524Z,7.65
2023-03-17T22:43:51.095Z,8.50
2023-03-17T22:46:18.020Z,7.68
2023-03-17T22:48:44.685Z,8.60
2023-03-17T22:51:16.751Z,7.85
2023-03-17T22:53:43.418Z,7.32
2023-03-17T22:56:11.007Z,8.75
2023-03-17T22:58:37.515Z,8.90
2023-03-17T23:01:05.655Z,7.88
2023-03-17T23:03:33.720Z,8.68
2023-03-17T23:06:00.794Z,8.52
2023-03-17T23:08:29.279Z,7.90
2023-03-17T23:10:56.177Z,9.40
2023-03-17T23:13:24.092Z,9.40
2023-03-17T23:15:50.590Z,8.48
2023-03-17T23:18:17.135Z,8.65
2023-03-17T23:20:43.592Z,8.35
2023-03-17T23:23:10.673Z,7.93
2023-03-17T23:25:38.247Z,9.07
2023-03-17T23:28:05.444Z,8.52
2023-03-17T23:30:32.463Z,8.60
2023-03-17T23:32:59.325Z,9.70
2023-03-17T23:35:25.876Z,9.80
2023-03-17T23:37:52.377Z,9.60
2023-03-17T23:40:18.969Z,8.65
2023-03-17T23:42:50.664Z,7.85
2023-03-17T23:45:18.050Z,8.70
2023-03-17T23:47:45.309Z,9.82
2023-03-17T23:50:12.361Z,7.95
2023-03-17T23:52:38.845Z,8.30
2023-03-17T23:55:06.693Z,8.32
2023-03-17T23:57:33.345Z,8.20
